createdAt,value
2022-09-14T00:01:56.354Z,19.5
2022-09-14T00:04:12.989Z,19.6
2022-09-14T00:06:29.443Z,19.5
2022-09-14T00:08:46.087Z,19.5
2022-09-14T00:11:02.670Z,19.4
2022-09-14T00:13:20.228Z,19.4
2022-09-14T00:15:34.382Z,19.3
2022-09-14T00:17:50.901Z,19.3
2022-09-14T00:20:07.646Z,19
2022-09-14T00:22:24.347Z,19
2022-09-14T00:24:40.926Z,18.9
2022-09-14T00:26:57.961Z,18.9
2022-09-14T00:29:14.309Z,19.2
2022-09-14T00:31:30.998Z,18.8
2022-09-14T00:33:47.694Z,18.8
2022-09-14T00:36:04.306Z,18.8
2022-09-14T00:38:19.497Z,18.8
2022-09-14T00:40:34.672Z,19.2
2022-09-14T00:42:51.315Z,19.1
2022-09-14T00:45:06.674Z,18.9
2022-09-14T00:47:23.274Z,19.1
2022-09-14T00:49:40.230Z,18.6
2022-09-14T00:56:28.905Z,18.8
2022-09-14T00:58:45.698Z,19.1
2022-09-14T01:01:02.515Z,18.8
2022-09-14T01:03:17.727Z,18.6
2022-09-14T01:05:34.296Z,19.2
2022-09-14T01:10:07.922Z,18.8
2022-09-14T01:12:24.955Z,18.8
2022-09-14T01:14:41.635Z,18.9
2022-09-14T01:16:56.787Z,18.9
2022-09-14T01:19:13.366Z,19.1
2022-09-14T01:23:46.958Z,18.6
2022-09-14T01:26:03.873Z,18.5
2022-09-14T01:30:38.509Z,18.8
2022-09-14T01:32:54.158Z,18.4
2022-09-14T01:35:14.095Z,18.8
2022-09-14T01:37:26.291Z,18.8
2022-09-14T01:39:42.887Z,19.3
2022-09-14T01:41:59.705Z,18.6
2022-09-14T01:44:16.461Z,18.8
2022-09-14T01:46:33.410Z,18.8
2022-09-14T01:53:23.859Z,18.6
2022-09-14T01:57:57.701Z,18.8
2022-09-14T02:00:14.265Z,18.6
2022-09-14T02:04:48.039Z,18.8
2022-09-14T02:09:21.684Z,18.8
2022-09-14T02:13:53.786Z,19.1
2022-09-14T02:16:10.849Z,18.6
2022-09-14T02:18:27.545Z,18.5
2022-09-14T02:20:45.154Z,18.6
2022-09-14T02:23:01.394Z,18.4
2022-09-14T02:27:35.103Z,18.6
2022-09-14T02:29:52.061Z,18.8
2022-09-14T02:32:08.837Z,18.6
2022-09-14T02:34:25.702Z,18.8
2022-09-14T02:36:42.671Z,18.8
2022-09-14T02:38:59.461Z,18.5
2022-09-14T02:41:16.501Z,18.5
2022-09-14T02:43:32.235Z,18.4
2022-09-14T02:45:47.809Z,19.3
2022-09-14T02:48:04.449Z,19
2022-09-14T02:54:54.270Z,18.8
2022-09-14T02:57:10.907Z,18.9
2022-09-14T02:59:28.080Z,18.4
2022-09-14T03:02:24.351Z,18.8
2022-09-14T03:04:41.379Z,18.4
2022-09-14T03:06:58.469Z,18.6
2022-09-14T03:13:49.294Z,18.4
2022-09-14T03:16:04.930Z,18.3
2022-09-14T03:18:21.588Z,18.8
2022-09-14T03:20:38.658Z,18.6
2022-09-14T03:22:55.615Z,18.1
2022-09-14T03:25:12.583Z,18.4
2022-09-14T03:27:28.470Z,18.4
2022-09-14T03:29:44.521Z,18.8
2022-09-14T03:32:00.615Z,18.9
2022-09-14T03:34:18.376Z,18.3
2022-09-14T03:36:35.404Z,18.3
2022-09-14T03:38:52.156Z,18.3
2022-09-14T03:41:09.220Z,18.1
2022-09-14T03:43:25.329Z,18.3
2022-09-14T03:45:41.840Z,18.8
2022-09-14T03:47:59.365Z,18.4
2022-09-14T03:50:16.398Z,18.1
2022-09-14T03:52:32.884Z,18.4
2022-09-14T03:54:49.974Z,18.1
2022-09-14T03:57:06.902Z,18.3
2022-09-14T03:59:22.919Z,18.2
2022-09-14T04:01:39.761Z,18.6
2022-09-14T04:03:56.620Z,17.9
2022-09-14T04:06:13.673Z,17.9
2022-09-14T04:08:29.713Z,18.4
2022-09-14T04:10:46.439Z,18.6
2022-09-14T04:13:03.429Z,18.4
2022-09-14T04:15:20.491Z,18.1
2022-09-14T04:17:37.574Z,18.4
2022-09-14T04:19:54.781Z,18.2
2022-09-14T04:22:11.657Z,18.8
2022-09-14T04:24:43.146Z,18.3
2022-09-14T04:29:23.399Z,18.2
2022-09-14T04:31:40.576Z,18.3
2022-09-14T04:33:58.224Z,18.3
2022-09-14T04:36:14.456Z,18.3
2022-09-14T04:38:31.486Z,18.1
2022-09-14T04:40:48.619Z,18.1
2022-09-14T04:43:04.744Z,18.2
2022-09-14T04:45:21.330Z,18.6
2022-09-14T04:47:37.897Z,18.6
2022-09-14T04:49:54.729Z,18.3
2022-09-14T04:52:11.699Z,18.2
2022-09-14T04:54:29.242Z,18.3
2022-09-14T04:56:45.518Z,18.1
2022-09-14T04:59:02.064Z,18.8
2022-09-14T05:01:18.366Z,18.1
2022-09-14T05:03:35.229Z,18.8
2022-09-14T05:05:52.529Z,18.1
2022-09-14T05:08:09.716Z,18.3
2022-09-14T05:10:26.934Z,18.6
2022-09-14T05:12:43.745Z,18.5
2022-09-14T05:15:00.905Z,18.6
2022-09-14T05:17:18.009Z,18.4
2022-09-14T05:19:34.947Z,18.5
2022-09-14T05:21:52.138Z,18.6
2022-09-14T05:24:09.151Z,18.6
2022-09-14T05:28:43.266Z,18.8
2022-09-14T05:30:59.544Z,18.6
2022-09-14T05:33:15.526Z,19.3
2022-09-14T05:35:32.039Z,19.4
2022-09-14T05:37:49.008Z,19.3
2022-09-14T05:42:22.474Z,19.3
2022-09-14T05:44:39.652Z,18.6
2022-09-14T05:46:56.668Z,18.5
2022-09-14T05:49:13.751Z,18.3
2022-09-14T05:51:29.783Z,18.4
2022-09-14T05:53:46.908Z,18.8
2022-09-14T05:56:03.057Z,18.4
2022-09-14T06:02:52.241Z,18.8
2022-09-14T06:05:09.990Z,18.1
2022-09-14T06:07:35.664Z,18.1
2022-09-14T06:09:52.899Z,18
2022-09-14T06:12:09.964Z,17.9
2022-09-14T06:14:27.149Z,17.9
2022-09-14T06:16:44.417Z,17.9
2022-09-14T06:19:01.767Z,18
2022-09-14T06:21:18.595Z,18.1
2022-09-14T06:23:35.879Z,18.3
2022-09-14T06:25:52.911Z,18.4
2022-09-14T06:28:10.147Z,18.4
2022-09-14T06:30:27.128Z,18.6
2022-09-14T06:35:01.579Z,19
2022-09-14T06:37:18.349Z,18.9
2022-09-14T06:39:35.446Z,19.1
2022-09-14T06:41:52.497Z,18.9
2022-09-14T06:44:09.565Z,18.9
2022-09-14T06:46:26.554Z,18.9
2022-09-14T06:48:44.114Z,18.9
2022-09-14T06:51:00.988Z,18.9
2022-09-14T06:53:17.795Z,19.3
2022-09-14T06:55:35.068Z,19.4
2022-09-14T06:57:52.067Z,19.3
2022-09-14T07:00:08.969Z,19.2
2022-09-14T07:02:26.180Z,19.1
2022-09-14T07:04:42.058Z,19.5
2022-09-14T07:06:57.695Z,19.5
2022-09-14T07:09:14.805Z,19.6
2022-09-14T07:11:31.807Z,19.7
2022-09-14T07:13:49.139Z,19.8
2022-09-14T07:16:05.984Z,19.8
2022-09-14T07:18:21.552Z,20.1
2022-09-14T07:20:38.740Z,20.2
2022-09-14T07:22:54.444Z,20.1
2022-09-14T07:25:10.715Z,20
2022-09-14T07:27:26.636Z,20.5
2022-09-14T07:29:44.088Z,20.3
2022-09-14T07:32:00.395Z,20.3
2022-09-14T07:34:18.157Z,20.6
2022-09-14T07:36:35.171Z,20.5
2022-09-14T07:39:00.843Z,20.6
2022-09-14T07:41:17.304Z,20.8
2022-09-14T07:43:33.803Z,20.7
2022-09-14T07:45:50.375Z,21.1
2022-09-14T07:48:07.106Z,21.4
2022-09-14T07:50:23.327Z,20.8
2022-09-14T07:52:39.828Z,21.3
2022-09-14T07:54:56.298Z,21.3
2022-09-14T07:57:12.752Z,21.4
2022-09-14T07:59:53.575Z,21.6
2022-09-14T08:02:10.073Z,21.6
2022-09-14T08:04:26.021Z,21.4
2022-09-14T08:06:41.337Z,21.3
2022-09-14T08:08:56.276Z,22.1
2022-09-14T08:11:11.730Z,22
2022-09-14T08:13:27.273Z,22.2
2022-09-14T08:15:42.535Z,22.6
2022-09-14T08:17:57.766Z,22.6
2022-09-14T08:20:13.306Z,22.6
2022-09-14T08:22:28.542Z,22.6
2022-09-14T08:24:43.964Z,22.9
2022-09-14T08:26:59.021Z,22.7
2022-09-14T08:29:14.203Z,22.9
2022-09-14T08:31:29.685Z,22.9
2022-09-14T08:33:44.813Z,22.9
2022-09-14T08:36:14.538Z,22.9
2022-09-14T08:38:30.000Z,22.9
2022-09-14T08:40:45.101Z,23
2022-09-14T08:43:00.303Z,22.9
2022-09-14T08:45:15.721Z,22.9
2022-09-14T08:47:31.079Z,22.9
2022-09-14T08:49:46.664Z,23
2022-09-14T08:52:01.794Z,22.8
2022-09-14T08:54:17.033Z,23.1
2022-09-14T08:56:32.023Z,23.5
2022-09-14T08:58:48.513Z,23.6
2022-09-14T09:02:23.139Z,23.6
2022-09-14T09:04:38.226Z,23.6
2022-09-14T09:06:53.297Z,23.6
2022-09-14T09:09:08.394Z,23.6
2022-09-14T09:11:23.434Z,23.6
2022-09-14T09:13:38.562Z,23.4
2022-09-14T09:15:53.595Z,23.6
2022-09-14T09:18:09.388Z,23.6
2022-09-14T09:20:23.688Z,23.6
2022-09-14T09:22:38.878Z,23.6
2022-09-14T09:24:53.468Z,23.8
2022-09-14T09:27:08.009Z,23.7
2022-09-14T09:29:23.788Z,23.8
2022-09-14T09:31:38.497Z,24.4
2022-09-14T09:33:53.538Z,24.2
2022-09-14T09:36:08.437Z,24.1
2022-09-14T09:38:23.542Z,23.9
2022-09-14T09:40:38.572Z,24
2022-09-14T09:42:53.474Z,24
2022-09-14T09:45:18.587Z,23.9
2022-09-14T09:47:33.550Z,23.9
2022-09-14T09:49:48.973Z,23.8
2022-09-14T09:52:03.833Z,23.9
2022-09-14T09:54:18.861Z,24.1
2022-09-14T09:56:33.846Z,24.3
2022-09-14T09:58:48.752Z,24.4
2022-09-14T10:01:03.686Z,24.7
2022-09-14T10:03:18.563Z,24.6
2022-09-14T10:05:33.509Z,24.6
2022-09-14T10:07:47.776Z,24.6
2022-09-14T10:10:03.558Z,24.5
2022-09-14T10:12:18.263Z,24.6
2022-09-14T10:14:33.081Z,24.4
2022-09-14T10:16:48.093Z,24.3
2022-09-14T10:19:02.909Z,24.4
2022-09-14T10:21:17.850Z,24.4
2022-09-14T10:23:32.833Z,24.4
2022-09-14T10:25:47.620Z,24.5
2022-09-14T10:28:02.561Z,24.1
2022-09-14T10:30:17.367Z,24.3
2022-09-14T10:32:32.498Z,24.2
2022-09-14T10:34:47.263Z,24.3
2022-09-14T10:37:02.165Z,24.7
2022-09-14T10:39:16.480Z,24.5
2022-09-14T10:41:32.053Z,24.3
2022-09-14T10:43:46.917Z,24.2
2022-09-14T10:46:02.133Z,24.4
2022-09-14T10:48:16.662Z,24.9
2022-09-14T10:50:31.468Z,24.9
2022-09-14T10:52:46.431Z,24.8
2022-09-14T10:55:01.253Z,24.8
2022-09-14T10:57:16.156Z,24.8
2022-09-14T10:59:30.961Z,24.8
2022-09-14T11:01:46.519Z,24.7
2022-09-14T11:04:00.773Z,24.6
2022-09-14T11:06:15.519Z,24.6
2022-09-14T11:08:30.375Z,24.5
2022-09-14T11:10:45.252Z,24.4
2022-09-14T11:13:00.085Z,24.6
2022-09-14T11:15:15.053Z,24.6
2022-09-14T11:17:29.761Z,24.5
2022-09-14T11:19:44.712Z,24.6
2022-09-14T11:21:59.763Z,24.6
2022-09-14T11:24:14.376Z,24.6
2022-09-14T11:26:29.291Z,24.4
2022-09-14T11:28:44.099Z,24.4
2022-09-14T11:30:58.931Z,24.6
2022-09-14T11:33:22.372Z,24.5
2022-09-14T11:35:37.312Z,24.8
2022-09-14T11:37:52.115Z,24.6
2022-09-14T11:40:07.034Z,24.6
2022-09-14T11:42:21.857Z,24.7
2022-09-14T11:44:36.680Z,24.5
2022-09-14T11:46:51.480Z,24.5
2022-09-14T11:49:20.766Z,24.5
2022-09-14T11:51:35.562Z,24.8
2022-09-14T11:53:50.456Z,24.6
2022-09-14T11:56:05.228Z,24.6
2022-09-14T11:58:20.100Z,24.5
2022-09-14T12:00:35.037Z,24.5
2022-09-14T12:02:49.844Z,24.6
2022-09-14T12:05:04.576Z,24.6
2022-09-14T12:07:19.463Z,24.6
2022-09-14T12:09:34.382Z,24.6
2022-09-14T12:11:49.075Z,24.6
2022-09-14T12:14:03.942Z,24.5
2022-09-14T12:16:18.868Z,24.6
2022-09-14T12:18:43.212Z,24.7
2022-09-14T12:20:57.866Z,24.8
2022-09-14T12:23:12.754Z,24.6
2022-09-14T12:25:27.163Z,24.6
2022-09-14T12:27:42.409Z,24.6
2022-09-14T12:29:57.440Z,24.5
2022-09-14T12:32:12.122Z,24.6
2022-09-14T12:34:27.341Z,24.7
2022-09-14T12:36:42.079Z,25
2022-09-14T12:38:56.704Z,24.8
2022-09-14T12:41:11.558Z,24.8
2022-09-14T12:43:26.364Z,24.6
2022-09-14T12:45:41.191Z,24.7
2022-09-14T12:47:56.004Z,24.6
2022-09-14T12:50:10.858Z,24.6
2022-09-14T12:52:25.743Z,24.6
2022-09-14T12:54:40.707Z,24.6
2022-09-14T12:56:55.400Z,24.8
2022-09-14T12:59:10.286Z,25
2022-09-14T13:01:25.192Z,24.6
2022-09-14T13:03:39.958Z,24.7
2022-09-14T13:05:54.811Z,24.8
2022-09-14T13:08:09.585Z,24.8
2022-09-14T13:10:24.525Z,24.7
2022-09-14T13:12:39.366Z,24.6
2022-09-14T13:14:54.122Z,24.8
2022-09-14T13:17:08.984Z,24.6
2022-09-14T13:19:23.848Z,24.6
2022-09-14T13:21:38.743Z,24.8
2022-09-14T13:23:53.527Z,24.7
2022-09-14T13:26:08.275Z,24.8
2022-09-14T13:28:23.174Z,24.8
2022-09-14T13:30:38.028Z,24.8
2022-09-14T13:32:52.774Z,24.7
2022-09-14T13:35:07.745Z,24.6
2022-09-14T13:37:22.577Z,25.1
2022-09-14T13:39:37.434Z,25
2022-09-14T13:41:52.195Z,24.9
2022-09-14T13:44:07.071Z,24.8
2022-09-14T13:46:21.918Z,24.8
2022-09-14T13:48:36.927Z,24.8
2022-09-14T13:50:52.912Z,24.9
2022-09-14T13:53:19.198Z,24.5
2022-09-14T13:55:34.139Z,24.8
2022-09-14T13:57:48.771Z,24.9
2022-09-14T14:00:03.763Z,24.9
2022-09-14T14:02:19.066Z,24.9
2022-09-14T14:04:33.301Z,24.8
2022-09-14T14:06:48.137Z,24.9
2022-09-14T14:09:03.072Z,24.8
2022-09-14T14:11:18.190Z,25
2022-09-14T14:13:32.982Z,24.7
2022-09-14T14:15:48.198Z,24.6
2022-09-14T14:18:02.958Z,24.5
2022-09-14T14:20:18.062Z,24.5
2022-09-14T14:22:32.986Z,24.3
2022-09-14T14:25:14.462Z,24.7
2022-09-14T14:27:29.308Z,24.5
2022-09-14T14:29:44.094Z,24.6
2022-09-14T14:31:59.103Z,24.4
2022-09-14T14:34:13.800Z,24.3
2022-09-14T14:36:28.615Z,24.5
2022-09-14T14:38:43.506Z,24.4
2022-09-14T14:40:58.542Z,24.6
2022-09-14T14:43:13.254Z,24.6
2022-09-14T14:45:28.128Z,24.5
2022-09-14T14:47:42.903Z,24.4
2022-09-14T14:49:57.705Z,24.5
2022-09-14T14:52:12.549Z,24.4
2022-09-14T14:54:27.435Z,24.5
2022-09-14T14:56:42.263Z,24.3
2022-09-14T14:59:01.472Z,24.4
2022-09-14T15:02:23.017Z,23.6
2022-09-14T15:04:37.777Z,24.7
2022-09-14T15:06:52.630Z,24.6
2022-09-14T15:09:07.596Z,24.5
2022-09-14T15:11:22.334Z,24.4
2022-09-14T15:13:37.188Z,24.6
2022-09-14T15:15:52.032Z,24.5
2022-09-14T15:18:06.853Z,24.4
2022-09-14T15:20:22.450Z,24.4
2022-09-14T15:22:35.947Z,24.3
2022-09-14T15:24:51.667Z,24.7
2022-09-14T15:27:06.183Z,24.8
2022-09-14T15:29:21.102Z,24.3
2022-09-14T15:31:35.873Z,24.3
2022-09-14T15:33:50.651Z,24.2
2022-09-14T15:36:05.522Z,24.3
2022-09-14T15:38:20.609Z,24.4
2022-09-14T15:40:35.372Z,24.3
2022-09-14T15:42:50.225Z,24.3
2022-09-14T15:45:05.964Z,24.3
2022-09-14T15:47:19.845Z,24.1
2022-09-14T15:49:34.698Z,24.1
2022-09-14T15:51:49.469Z,24.2
2022-09-14T15:54:04.466Z,24.3
2022-09-14T15:56:19.118Z,23.9
2022-09-14T15:58:34.093Z,24.1
2022-09-14T16:00:49.142Z,24.1
2022-09-14T16:03:03.742Z,24.4
2022-09-14T16:05:18.646Z,24.1
2022-09-14T16:07:33.498Z,24.1
2022-09-14T16:09:49.037Z,24.1
2022-09-14T16:12:04.267Z,23.9
2022-09-14T16:14:19.148Z,24.4
2022-09-14T16:16:33.916Z,24.3
2022-09-14T16:18:48.964Z,24.5
2022-09-14T16:21:03.690Z,24.4
2022-09-14T16:23:18.457Z,24.1
2022-09-14T16:25:33.479Z,24.1
2022-09-14T16:27:48.960Z,24.3
2022-09-14T16:30:04.306Z,24.1
2022-09-14T16:32:19.419Z,24.2
2022-09-14T16:34:34.418Z,24
2022-09-14T16:36:49.445Z,23.9
2022-09-14T16:39:04.459Z,24.1
2022-09-14T16:41:19.559Z,23.9
2022-09-14T16:43:34.446Z,23.9
2022-09-14T16:45:49.638Z,23.9
2022-09-14T16:48:04.422Z,23.9
2022-09-14T16:50:19.891Z,23.8
2022-09-14T16:52:35.249Z,23.7
2022-09-14T16:54:54.214Z,23.9
2022-09-14T16:57:06.851Z,23.9
2022-09-14T16:59:21.748Z,23.8
2022-09-14T17:01:37.095Z,23.8
2022-09-14T17:03:52.320Z,23.9
2022-09-14T17:06:07.946Z,23.8
2022-09-14T17:08:23.563Z,23.8
2022-09-14T17:10:39.138Z,23.7
2022-09-14T17:12:54.659Z,23.6
2022-09-14T17:15:09.528Z,23.6
2022-09-14T17:17:25.310Z,24.3
2022-09-14T17:19:43.633Z,23.4
2022-09-14T17:21:56.181Z,23.6
2022-09-14T17:24:11.034Z,24.1
2022-09-14T17:26:27.634Z,23.8
2022-09-14T17:28:42.820Z,23.4
2022-09-14T17:30:58.047Z,23.4
2022-09-14T17:33:13.920Z,23.8
2022-09-14T17:35:29.724Z,23.3
2022-09-14T17:37:45.367Z,23.3
2022-09-14T17:40:01.189Z,23
2022-09-14T17:42:16.880Z,23.1
2022-09-14T17:44:32.492Z,23.1
2022-09-14T17:46:52.475Z,23
2022-09-14T17:49:03.726Z,22.9
2022-09-14T17:51:19.497Z,23
2022-09-14T17:53:35.187Z,22.8
2022-09-14T17:55:50.272Z,22.8
2022-09-14T17:58:05.976Z,23.2
2022-09-14T18:00:21.696Z,22.6
2022-09-14T18:02:37.628Z,22.6
2022-09-14T18:04:53.385Z,22.5
2022-09-14T18:07:09.295Z,22.6
2022-09-14T18:09:24.856Z,22.7
2022-09-14T18:11:40.796Z,22.7
2022-09-14T18:13:56.425Z,22.8
2022-09-14T18:16:12.268Z,22.7
2022-09-14T18:18:27.070Z,22.9
2022-09-14T18:20:43.195Z,23.3
2022-09-14T18:22:58.828Z,22.7
2022-09-14T18:25:14.537Z,22.7
2022-09-14T18:27:30.438Z,22.7
2022-09-14T18:29:46.090Z,22.8
2022-09-14T18:32:02.589Z,22.8
2022-09-14T18:34:17.525Z,22.4
2022-09-14T18:36:32.645Z,22.6
2022-09-14T18:38:48.406Z,23.3
2022-09-14T18:41:04.350Z,22.6
2022-09-14T18:43:20.067Z,22.6
2022-09-14T18:45:35.713Z,22.8
2022-09-14T18:47:51.640Z,22.8
2022-09-14T18:50:07.160Z,22.7
2022-09-14T18:52:23.206Z,22.8
2022-09-14T18:54:38.015Z,22.8
2022-09-14T18:56:53.954Z,23.3
2022-09-14T18:59:09.761Z,22.6
2022-09-14T19:01:25.800Z,22.7
2022-09-14T19:03:41.326Z,22.9
2022-09-14T19:05:57.216Z,22.6
2022-09-14T19:08:13.019Z,22.7
2022-09-14T19:10:28.453Z,22.7
2022-09-14T19:12:44.272Z,22.6
2022-09-14T19:14:59.965Z,22.7
2022-09-14T19:17:15.951Z,22.8
2022-09-14T19:19:31.493Z,22.8
2022-09-14T19:22:05.216Z,22.6
2022-09-14T19:24:20.796Z,22.7
2022-09-14T19:26:39.053Z,22.7
2022-09-14T19:28:52.294Z,22.8
2022-09-14T19:31:08.358Z,22.6
2022-09-14T19:33:23.759Z,22.4
2022-09-14T19:35:38.818Z,22.5
2022-09-14T19:37:55.092Z,22.3
2022-09-14T19:40:10.765Z,22.4
2022-09-14T19:42:26.840Z,22.3
2022-09-14T19:44:42.274Z,22.4
2022-09-14T19:46:58.058Z,22.3
2022-09-14T19:49:13.896Z,22.3
2022-09-14T19:51:29.789Z,22.2
2022-09-14T19:53:44.745Z,22.3
2022-09-14T19:56:00.544Z,22.8
2022-09-14T19:58:16.542Z,22.2
2022-09-14T20:00:31.449Z,22.3
2022-09-14T20:02:47.611Z,22.5
2022-09-14T20:05:03.560Z,21.9
2022-09-14T20:07:18.699Z,21.9
2022-09-14T20:09:34.673Z,22.4
2022-09-14T20:11:50.833Z,22.2
2022-09-14T20:14:06.502Z,22
2022-09-14T20:16:22.667Z,22
2022-09-14T20:18:37.372Z,22
2022-09-14T20:20:53.449Z,22.4
2022-09-14T20:23:10.014Z,22
2022-09-14T20:25:39.558Z,22.1
2022-09-14T20:27:55.286Z,22.1
2022-09-14T20:30:11.083Z,22.1
2022-09-14T20:32:26.832Z,21.8
2022-09-14T20:34:42.506Z,21.8
2022-09-14T20:36:58.286Z,21.9
2022-09-14T20:39:13.873Z,21.9
2022-09-14T20:41:28.851Z,21.8
2022-09-14T20:43:44.762Z,22.3
2022-09-14T20:45:59.837Z,21.8
2022-09-14T20:48:14.613Z,22.2
2022-09-14T20:50:30.697Z,22.1
2022-09-14T20:52:47.045Z,21.8
2022-09-14T20:55:02.243Z,21.9
2022-09-14T20:57:18.536Z,21.8
2022-09-14T20:59:34.264Z,21.9
2022-09-14T21:02:23.131Z,21.6
2022-09-14T21:04:39.154Z,22.1
2022-09-14T21:06:55.262Z,21.8
2022-09-14T21:09:11.094Z,21.6
2022-09-14T21:11:26.421Z,21.4
2022-09-14T21:13:42.848Z,21.5
2022-09-14T21:15:58.649Z,21.6
2022-09-14T21:18:17.586Z,21.6
2022-09-14T21:20:30.093Z,21.4
2022-09-14T21:22:45.102Z,21.4
2022-09-14T21:25:00.996Z,21.8
2022-09-14T21:27:16.062Z,21.5
2022-09-14T21:29:32.041Z,21.8
2022-09-14T21:31:48.113Z,21.7
2022-09-14T21:34:04.094Z,21.7
2022-09-14T21:36:20.075Z,21.5
2022-09-14T21:38:35.821Z,21.4
2022-09-14T21:40:51.561Z,21.5
2022-09-14T21:43:07.703Z,21.6
2022-09-14T21:45:23.183Z,21.6
2022-09-14T21:47:39.070Z,21.6
2022-09-14T21:49:54.007Z,21.7
2022-09-14T21:52:08.789Z,21.9
2022-09-14T21:54:24.835Z,21.9
2022-09-14T21:56:41.059Z,21.7
2022-09-14T21:58:56.124Z,21.9
2022-09-14T22:01:12.155Z,22.1
2022-09-14T22:03:28.164Z,21.8
2022-09-14T22:05:44.613Z,22
2022-09-14T22:07:59.007Z,21.9
2022-09-14T22:10:15.015Z,22.4
2022-09-14T22:12:30.101Z,22.1
2022-09-14T22:14:46.027Z,22.8
2022-09-14T22:17:02.178Z,22.1
2022-09-14T22:19:18.146Z,22.3
2022-09-14T22:21:34.020Z,22
2022-09-14T22:23:49.699Z,22.3
2022-09-14T22:26:05.101Z,22.3
2022-09-14T22:28:21.400Z,22.1
2022-09-14T22:30:37.206Z,22
2022-09-14T22:32:53.086Z,22.1
2022-09-14T22:35:08.998Z,22.3
2022-09-14T22:37:24.823Z,22.2
2022-09-14T22:39:40.859Z,22.2
2022-09-14T22:41:56.654Z,22.3
2022-09-14T22:44:11.576Z,22.1
2022-09-14T22:46:27.609Z,22.3
2022-09-14T22:48:43.839Z,22.1
2022-09-14T22:50:58.717Z,22.3
2022-09-14T22:53:14.745Z,22.8
2022-09-14T22:55:29.791Z,22
2022-09-14T22:57:45.905Z,22.5
2022-09-14T23:00:02.063Z,22.3
2022-09-14T23:02:18.133Z,21.9
2022-09-14T23:04:34.123Z,22.3
2022-09-14T23:06:50.191Z,22.1
2022-09-14T23:09:06.230Z,22.1
2022-09-14T23:11:22.109Z,22.1
2022-09-14T23:13:38.430Z,22.2
2022-09-14T23:15:53.151Z,22.3
2022-09-14T23:18:09.392Z,22.6
2022-09-14T23:20:25.508Z,22.2
2022-09-14T23:22:41.956Z,22.1
2022-09-14T23:24:57.814Z,22
2022-09-14T23:27:14.118Z,22.3
2022-09-14T23:29:29.162Z,22.3
2022-09-14T23:31:45.475Z,22.5
2022-09-14T23:34:01.558Z,22
2022-09-14T23:36:17.951Z,21.9
2022-09-14T23:38:34.114Z,21.9
2022-09-14T23:40:50.153Z,22.1
2022-09-14T23:43:06.410Z,22.1
2022-09-14T23:45:22.408Z,21.9
2022-09-14T23:47:38.649Z,22.1
2022-09-14T23:49:54.738Z,22
2022-09-14T23:52:10.452Z,22.1
2022-09-14T23:54:27.127Z,21.9
2022-09-14T23:56:43.869Z,22
2022-09-14T23:59:00.033Z,21.9
